CheckWX is a tool to help pilots better visualize weather data.  It is not intended as a substitute for an official pre-flight weather briefing.

05:29:17 UTC

GMFM METAR
Bassatine Airport
Meknes, Morocco
Current

29 mins ago

GMFM 240500Z 14006KT CAVOK 08/03 Q1025 NOSIG
Observed
Feb-24 @ 05:00 UTC
Wind
  • 140° at 6 KTS
Visibility
10,000+ meters
Flight Rules
VFR
Cloud Levels
  • Clear skies
Temperature
C / 46°F
Dewpoint
C / 37°F
Humidity
71%
Altimeter
30.27" Hg
Pressure
1024.92 hPa
Previous

1 hour ago

GMFM 240400Z 15005KT CAVOK 09/04 Q1025 NOSIG
Observed
Feb-24 @ 04:00 UTC
Wind
  • 150° at 5 KTS
Visibility
10,000+ meters
Flight Rules
VFR
Cloud Levels
  • Clear skies
Temperature
C / 48°F
Dewpoint
C / 39°F
Humidity
71%
Altimeter
30.27" Hg
Pressure
1024.92 hPa
Previous

2 hours ago

GMFM 240300Z 15004KT CAVOK 06/04 Q1025 NOSIG
Observed
Feb-24 @ 03:00 UTC
Wind
  • 150° at 4 KTS
Visibility
10,000+ meters
Flight Rules
VFR
Cloud Levels
  • Clear skies
Temperature
C / 43°F
Dewpoint
C / 39°F
Humidity
87%
Altimeter
30.27" Hg
Pressure
1024.92 hPa